Time;durP1;ratioP1;P1;durP2;ratioP2;P2;SDS_P1;SDS_P2;PMS_P1;PMS_P2;Temp;Humidity;BMP_temperature;BMP_pressure;BME280_temperature;BME280_humidity;BME280_pressure;Samples;Min_cycle;Max_cycle;Signal;HPM_P1;HPM_P2
2022/11/29 00:01:53;;;;;;;;;;;;;;;;;;5057802;28;7220;-65
2022/11/29 00:04:19;;;;;;;;;;;;;;;;;;5057635;28;7404;-65
2022/11/29 00:06:54;;;;;;;;;;;;;;;;;;5057673;28;7188;-65
2022/11/29 00:09:20;;;;;;;;;;;;;;;;;;5058635;28;7215;-65
2022/11/29 00:14:30;;;;;;;;;;;;;;;;;;5057619;28;6966;-65
2022/11/29 00:17:00;;;;;;;;;;;;;;;;;;5057255;28;6963;-64
2022/11/29 00:19:26;;;;;;;;;;;;;;;;;;5057470;28;7146;-65
2022/11/29 00:21:52;;;;;;;;;;;;;;;;;;5057341;28;7025;-65
2022/11/29 00:24:30;;;;;;;;;;;;;;;;;;5057504;28;7259;-65
2022/11/29 00:26:56;;;;;;;;;;;;;;;;;;5056960;28;8023;-65
2022/11/29 00:29:21;;;;;;;;;;;;;;;;;;5057132;28;6848;-65
2022/11/29 00:31:47;;;;;;;;;;;;;;;;;;5056940;28;7061;-64
2022/11/29 00:34:13;;;;;;;;;;;;;;;;;;5057136;28;7719;-65
2022/11/29 00:36:39;;;;;;;;;;;;;;;;;;5057216;28;6908;-65
2022/11/29 00:42:07;;;;;;;;;;;;;;;;;;5056813;28;6956;-65
2022/11/29 00:44:33;;;;;;;;;;;;;;;;;;5054575;28;7237;-70
2022/11/29 00:46:59;;;;;;;;;;;;;;;;;;5057002;28;7227;-70
2022/11/29 00:49:24;;;;;;;;;;;;;;;;;;5056604;28;6959;-70
2022/11/29 00:51:49;;;;;;;;;;;;;;;;;;5056710;28;7119;-70
2022/11/29 00:54:15;;;;;;;;;;;;;;;;;;5056428;28;6914;-70
2022/11/29 00:56:41;;;;;;;;;;;;;;;;;;5056726;28;7093;-70
2022/11/29 00:59:07;;;;;;;;;;;;;;;;;;5056284;28;7206;-70
2022/11/29 01:01:33;;;;;;;;;;;;;;;;;;5056730;28;6920;-70
2022/11/29 01:04:02;;;;;;;;;;;;;;;;;;5055713;28;7297;-70
2022/11/29 01:06:34;;;;;;;;;;;;;;;;;;5056321;28;7433;-70
2022/11/29 01:09:00;;;;;;;;;;;;;;;;;;5055716;28;7058;-70
2022/11/29 01:11:27;;;;;;;;;;;;;;;;;;5056525;28;7416;-70
2022/11/29 01:13:54;;;;;;;;;;;;;;;;;;5056440;28;6980;-70
2022/11/29 01:16:20;;;;;;;;;;;;;;;;;;5056480;28;7271;-70
2022/11/29 01:18:46;;;;;;;;;;;;;;;;;;5088517;28;8772;-70
2022/11/29 01:21:13;;;;;;;;;;;;;;;;;;5056084;28;7241;-70
2022/11/29 01:23:54;;;;;;;;;;;;;;;;;;5056116;28;7428;-70
2022/11/29 01:26:25;;;;;;;;;;;;;;;;;;5056083;28;7144;-70
2022/11/29 01:28:53;;;;;;;;;;;;;;;;;;5055884;28;7158;-70
2022/11/29 01:31:20;;;;;;;;;;;;;;;;;;5055906;28;6839;-70
2022/11/29 01:34:03;;;;;;;;;;;;;;;;;;5055673;28;6986;-70
2022/11/29 01:36:29;;;;;;;;;;;;;;;;;;5056536;28;6926;-70
2022/11/29 01:39:05;;;;;;;;;;;;;;;;;;5055763;28;8145;-70
2022/11/29 01:41:33;;;;;;;;;;;;;;;;;;5055549;28;7033;-65
2022/11/29 01:47:11;;;;;;;;;;;;;;;;;;5055548;28;6737;-65
2022/11/29 01:49:41;;;;;;;;;;;;;;;;;;5055269;28;6813;-65
2022/11/29 01:52:11;;;;;;;;;;;;;;;;;;5055723;28;7440;-65
2022/11/29 01:54:45;;;;;;;;;;;;;;;;;;5055629;28;7141;-65
2022/11/29 01:57:12;;;;;;;;;;;;;;;;;;5055364;28;7903;-65
2022/11/29 01:59:41;;;;;;;;;;;;;;;;;;5055608;28;6935;-65
2022/11/29 02:02:15;;;;;;;;;;;;;;;;;;5055389;28;6845;-65
2022/11/29 02:04:42;;;;;;;;;;;;;;;;;;5055366;28;7091;-65
2022/11/29 02:07:08;;;;;;;;;;;;;;;;;;5055417;28;7181;-65
2022/11/29 02:09:34;;;;;;;;;;;;;;;;;;5055125;28;6943;-64
2022/11/29 02:11:59;;;;;;;;;;;;;;;;;;5055231;28;7381;-65
2022/11/29 02:14:25;;;;;;;;;;;;;;;;;;5055211;28;7127;-64
2022/11/29 02:16:50;;;;;;;;;;;;;;;;;;5055116;28;7148;-64
2022/11/29 02:19:34;;;;;;;;;;;;;;;;;;5054063;28;7296;-64
2022/11/29 02:22:00;;;;;;;;;;;;;;;;;;5055705;28;7210;-65
2022/11/29 02:24:31;;;;;;;;;;;;;;;;;;5055101;28;7500;-64
2022/11/29 02:26:57;;;;;;;;;;;;;;;;;;5054933;28;7140;-64
2022/11/29 02:32:51;;;;;;;;;;;;;;;;;;5054810;28;6694;-64
2022/11/29 02:35:43;;;;;;;;;;;;;;;;;;5071090;28;8476;-64
2022/11/29 02:41:28;;;;;;;;;;;;;;;;;;5055265;28;6781;-64
2022/11/29 02:44:23;;;;;;;;;;;;;;;;;;5054835;28;7434;-64
2022/11/29 02:52:54;;;;;;;;;;;;;;;;;;5054929;28;7034;-64
2022/11/29 02:55:44;;;;;;;;;;;;;;;;;;5054692;28;7400;-64
2022/11/29 02:58:23;;;;;;;;;;;;;;;;;;5054644;28;6963;-64
2022/11/29 03:01:22;;;;;;;;;;;;;;;;;;5054582;28;6921;-64
2022/11/29 03:04:12;;;;;;;;;;;;;;;;;;5054476;28;6884;-64
2022/11/29 03:06:56;;;;;;;;;;;;;;;;;;5054730;28;7410;-64
2022/11/29 03:09:32;;;;;;;;;;;;;;;;;;5054462;28;7059;-64
2022/11/29 03:12:17;;;;;;;;;;;;;;;;;;5054685;28;7522;-64
2022/11/29 03:15:00;;;;;;;;;;;;;;;;;;5055200;28;7155;-64
2022/11/29 03:17:35;;;;;;;;;;;;;;;;;;5054564;28;7373;-69
2022/11/29 03:20:01;;;;;;;;;;;;;;;;;;5054794;28;6964;-69
2022/11/29 03:22:57;;;;;;;;;;;;;;;;;;5054578;28;7168;-69
2022/11/29 03:25:32;;;;;;;;;;;;;;;;;;5053024;28;8393;-69
2022/11/29 03:36:50;;;;;;;;;;;;;;;;;;5051601;28;6790;-69
2022/11/29 03:39:25;;;;;;;;;;;;;;;;;;5057766;28;7409;-69
2022/11/29 03:42:13;;;;;;;;;;;;;;;;;;5056869;28;8804;-69
2022/11/29 03:45:01;;;;;;;;;;;;;;;;;;5057825;28;7012;-69
2022/11/29 03:47:33;;;;;;;;;;;;;;;;;;5058105;28;7074;-69
2022/11/29 03:50:35;;;;;;;;;;;;;;;;;;5058653;28;7186;-69
2022/11/29 03:53:16;;;;;;;;;;;;;;;;;;5057962;28;6852;-69
2022/11/29 03:56:02;;;;;;;;;;;;;;;;;;5057861;28;7063;-69
2022/11/29 03:58:34;;;;;;;;;;;;;;;;;;5057777;28;7034;-69
2022/11/29 04:01:02;;;;;;;;;;;;;;;;;;5058009;28;6843;-69
2022/11/29 04:06:53;;;;;;;;;;;;;;;;;;5057656;28;6771;-69
2022/11/29 04:09:29;;;;;;;;;;;;;;;;;;5058151;28;7386;-69
2022/11/29 04:12:23;;;;;;;;;;;;;;;;;;5058444;28;7170;-69
2022/11/29 04:20:54;;;;;;;;;;;;;;;;;;5057463;28;6952;-69
2022/11/29 04:23:38;;;;;;;;;;;;;;;;;;5057442;28;7127;-69
2022/11/29 04:29:06;;;;;;;;;;;;;;;;;;5057769;28;7037;-69
2022/11/29 04:31:50;;;;;;;;;;;;;;;;;;5057197;28;7058;-69
2022/11/29 04:34:28;;;;;;;;;;;;;;;;;;5058168;28;7410;-69
2022/11/29 04:36:59;;;;;;;;;;;;;;;;;;5057178;28;7260;-69
2022/11/29 04:39:39;;;;;;;;;;;;;;;;;;5057163;28;7114;-69
2022/11/29 04:42:23;;;;;;;;;;;;;;;;;;5056070;28;7245;-69
2022/11/29 04:51:26;;;;;;;;;;;;;;;;;;5056896;28;7043;-69
2022/11/29 04:53:54;;;;;;;;;;;;;;;;;;5056851;28;7455;-69
2022/11/29 04:56:38;;;;;;;;;;;;;;;;;;5056955;28;7369;-69
2022/11/29 04:59:09;;;;;;;;;;;;;;;;;;5056687;28;7066;-69
2022/11/29 05:02:09;;;;;;;;;;;;;;;;;;5056751;28;7072;-69
2022/11/29 05:07:29;;;;;;;;;;;;;;;;;;5056700;28;6789;-70
2022/11/29 05:10:19;;;;;;;;;;;;;;;;;;5056826;28;7025;-70
2022/11/29 05:13:03;;;;;;;;;;;;;;;;;;5056544;28;7182;-70
2022/11/29 05:15:29;;;;;;;;;;;;;;;;;;5056240;28;7204;-70
2022/11/29 05:21:07;;;;;;;;;;;;;;;;;;5056092;28;6913;-70
2022/11/29 05:23:36;;;;;;;;;;;;;;;;;;5056273;28;7121;-70
2022/11/29 05:29:23;;;;;;;;;;;;;;;;;;5056012;28;6778;-70
2022/11/29 05:31:49;;;;;;;;;;;;;;;;;;5054802;28;8532;-70
2022/11/29 05:37:32;;;;;;;;;;;;;;;;;;5056090;28;6781;-70
2022/11/29 05:45:49;;;;;;;;;;;;;;;;;;5055769;28;6962;-70
2022/11/29 05:48:14;;;;;;;;;;;;;;;;;;5055639;28;7016;-70
2022/11/29 05:50:42;;;;;;;;;;;;;;;;;;5055719;28;7056;-71
2022/11/29 05:59:12;;;;;;;;;;;;;;;;;;5055594;28;6928;-70
2022/11/29 06:01:50;;;;;;;;;;;;;;;;;;5055678;28;6901;-71
2022/11/29 06:04:18;;;;;;;;;;;;;;;;;;5055536;28;7071;-70
2022/11/29 06:10:10;;;;;;;;;;;;;;;;;;5059842;28;6678;-69
2022/11/29 06:12:36;;;;;;;;;;;;;;;;;;5074990;28;7274;-69
2022/11/29 06:15:22;;;;;;;;;;;;;;;;;;5074886;28;7421;-69
2022/11/29 06:21:12;;;;;;;;;;;;;;;;;;5074706;28;6973;-69
2022/11/29 06:23:43;;;;;;;;;;;;;;;;;;5075137;28;7410;-69
2022/11/29 06:26:37;;;;;;;;;;;;;;;;;;5075267;28;7053;-69
2022/11/29 06:29:35;;;;;;;;;;;;;;;;;;5071121;28;7094;-69
2022/11/29 06:35:01;;;;;;;;;;;;;;;;;;5075522;28;6944;-69
2022/11/29 06:37:48;;;;;;;;;;;;;;;;;;5074950;28;7206;-69
2022/11/29 06:40:15;;;;;;;;;;;;;;;;;;5075086;28;7229;-69
2022/11/29 06:42:59;;;;;;;;;;;;;;;;;;5074463;28;7355;-69
2022/11/29 06:45:26;;;;;;;;;;;;;;;;;;5074991;28;6841;-69
2022/11/29 06:48:02;;;;;;;;;;;;;;;;;;5074623;28;7018;-69
2022/11/29 06:51:04;;;;;;;;;;;;;;;;;;5056618;28;7036;-69
2022/11/29 06:53:47;;;;;;;;;;;;;;;;;;5055066;28;7242;-69
2022/11/29 06:56:36;;;;;;;;;;;;;;;;;;5054622;28;7052;-69
2022/11/29 06:59:25;;;;;;;;;;;;;;;;;;5054504;28;7189;-69
2022/11/29 07:02:09;;;;;;;;;;;;;;;;;;5054655;28;7155;-69
2022/11/29 07:04:59;;;;;;;;;;;;;;;;;;5053262;28;7368;-69
2022/11/29 07:07:24;;;;;;;;;;;;;;;;;;5058239;28;8769;-69
2022/11/29 07:10:04;;;;;;;;;;;;;;;;;;5058897;28;7076;-69
2022/11/29 07:12:30;;;;;;;;;;;;;;;;;;5058570;28;7087;-69
2022/11/29 07:15:05;;;;;;;;;;;;;;;;;;5058417;28;7492;-69
2022/11/29 07:17:33;;;;;;;;;;;;;;;;;;5058612;28;7167;-69
2022/11/29 07:26:34;;;;;;;;;;;;;;;;;;5058234;28;6683;-69
2022/11/29 07:29:06;;;;;;;;;;;;;;;;;;5058003;28;7833;-69
2022/11/29 07:37:56;;;;;;;;;;;;;;;;;;5059168;28;6966;-69
2022/11/29 07:40:40;;;;;;;;;;;;;;;;;;5058518;28;7153;-69
2022/11/29 07:43:16;;;;;;;;;;;;;;;;;;5058529;28;7068;-69
2022/11/29 07:48:44;;;;;;;;;;;;;;;;;;5057715;28;6693;-69
2022/11/29 07:51:10;;;;;;;;;;;;;;;;;;5057725;28;7423;-69
2022/11/29 07:53:44;;;;;;;;;;;;;;;;;;5057772;28;7006;-69
2022/11/29 07:56:11;;;;;;;;;;;;;;;;;;5057972;28;7156;-69
2022/11/29 07:58:37;;;;;;;;;;;;;;;;;;5059011;28;7144;-69
2022/11/29 08:01:03;;;;;;;;;;;;;;;;;;5057083;28;7028;-69
2022/11/29 08:03:29;;;;;;;;;;;;;;;;;;5057461;28;7078;-69
2022/11/29 08:05:54;;;;;;;;;;;;;;;;;;5057739;28;7393;-69
2022/11/29 08:08:20;;;;;;;;;;;;;;;;;;5057458;28;7211;-69
2022/11/29 08:10:46;;;;;;;;;;;;;;;;;;5056488;28;8712;-69
2022/11/29 08:13:20;;;;;;;;;;;;;;;;;;5057400;28;6959;-69
2022/11/29 08:15:47;;;;;;;;;;;;;;;;;;5057039;28;7214;-69
2022/11/29 08:18:13;;;;;;;;;;;;;;;;;;5057093;28;7102;-69
2022/11/29 08:20:40;;;;;;;;;;;;;;;;;;5056800;28;6925;-69
2022/11/29 08:23:09;;;;;;;;;;;;;;;;;;5058239;28;7068;-73
2022/11/29 08:25:35;;;;;;;;;;;;;;;;;;5056937;28;7186;-69
2022/11/29 08:28:36;;;;;;;;;;;;;;;;;;5058109;28;7145;-69
2022/11/29 08:31:04;;;;;;;;;;;;;;;;;;5056710;28;7078;-69
2022/11/29 08:33:48;;;;;;;;;;;;;;;;;;5058081;28;6934;-69
2022/11/29 08:36:17;;;;;;;;;;;;;;;;;;5056644;28;6972;-69
2022/11/29 08:38:43;;;;;;;;;;;;;;;;;;5056860;28;7156;-69
2022/11/29 08:41:10;;;;;;;;;;;;;;;;;;5056878;28;7149;-69
2022/11/29 08:43:36;;;;;;;;;;;;;;;;;;5057128;28;6929;-69
2022/11/29 08:46:01;;;;;;;;;;;;;;;;;;5041347;28;7142;-69
2022/11/29 08:48:27;;;;;;;;;;;;;;;;;;5036907;28;6987;-69
2022/11/29 08:50:54;;;;;;;;;;;;;;;;;;5036792;28;7246;-69
2022/11/29 08:56:05;;;;;;;;;;;;;;;;;;5036989;28;6984;-69
2022/11/29 08:58:31;;;;;;;;;;;;;;;;;;5036854;28;7378;-69
2022/11/29 09:00:57;;;;;;;;;;;;;;;;;;5036868;28;7037;-69
2022/11/29 09:06:12;;;;;;;;;;;;;;;;;;5036861;28;6793;-69
2022/11/29 09:08:38;;;;;;;;;;;;;;;;;;5036356;28;7008;-69
2022/11/29 09:11:11;;;;;;;;;;;;;;;;;;5036482;28;6976;-69
2022/11/29 09:13:39;;;;;;;;;;;;;;;;;;5036478;28;7303;-69
2022/11/29 09:16:08;;;;;;;;;;;;;;;;;;5036132;28;6977;-69
2022/11/29 09:18:35;;;;;;;;;;;;;;;;;;5036370;28;6918;-69
2022/11/29 09:21:03;;;;;;;;;;;;;;;;;;5036271;28;7363;-69
2022/11/29 09:23:29;;;;;;;;;;;;;;;;;;5036342;28;7091;-69
2022/11/29 09:25:55;;;;;;;;;;;;;;;;;;5036252;28;7198;-69
2022/11/29 09:28:21;;;;;;;;;;;;;;;;;;5035307;28;7188;-69
2022/11/29 09:30:48;;;;;;;;;;;;;;;;;;5036106;28;7035;-69
2022/11/29 09:33:14;;;;;;;;;;;;;;;;;;5035818;28;6932;-69
2022/11/29 09:35:40;;;;;;;;;;;;;;;;;;5036077;28;7313;-69
2022/11/29 09:38:05;;;;;;;;;;;;;;;;;;5035927;28;7149;-69
2022/11/29 09:40:39;;;;;;;;;;;;;;;;;;5036021;28;7069;-69
2022/11/29 09:43:04;;;;;;;;;;;;;;;;;;5035583;28;7203;-69
2022/11/29 09:45:36;;;;;;;;;;;;;;;;;;5046899;28;7009;-69
2022/11/29 09:48:26;;;;;;;;;;;;;;;;;;5055277;28;7073;-69
2022/11/29 09:51:07;;;;;;;;;;;;;;;;;;5055646;28;7066;-69
2022/11/29 09:53:36;;;;;;;;;;;;;;;;;;5055216;28;7377;-69
2022/11/29 09:56:11;;;;;;;;;;;;;;;;;;5055537;28;7914;-69
2022/11/29 09:58:44;;;;;;;;;;;;;;;;;;5055048;28;7092;-69
2022/11/29 10:01:17;;;;;;;;;;;;;;;;;;5055054;28;7011;-69
2022/11/29 10:04:00;;;;;;;;;;;;;;;;;;5055233;28;6831;-69
2022/11/29 10:06:35;;;;;;;;;;;;;;;;;;5055503;28;7076;-69
2022/11/29 10:09:23;;;;;;;;;;;;;;;;;;5055151;28;7444;-70
2022/11/29 10:11:55;;;;;;;;;;;;;;;;;;5055001;28;7365;-69
2022/11/29 10:14:25;;;;;;;;;;;;;;;;;;5043432;28;6998;-69
2022/11/29 10:16:50;;;;;;;;;;;;;;;;;;5035473;28;7145;-69
2022/11/29 10:22:25;;;;;;;;;;;;;;;;;;5035066;28;6929;-69
2022/11/29 10:24:56;;;;;;;;;;;;;;;;;;5035241;28;6998;-70
2022/11/29 10:27:22;;;;;;;;;;;;;;;;;;5034892;28;6961;-70
2022/11/29 10:29:52;;;;;;;;;;;;;;;;;;5035250;28;7224;-70
2022/11/29 10:32:20;;;;;;;;;;;;;;;;;;5034971;28;7378;-70
2022/11/29 10:34:47;;;;;;;;;;;;;;;;;;5035183;28;7232;-70
2022/11/29 10:37:17;;;;;;;;;;;;;;;;;;5034434;28;6983;-70
2022/11/29 10:39:57;;;;;;;;;;;;;;;;;;5034137;28;7049;-74
2022/11/29 10:45:38;;;;;;;;;;;;;;;;;;5035374;28;6799;-72
2022/11/29 10:48:06;;;;;;;;;;;;;;;;;;5042319;28;7191;-69
2022/11/29 10:53:56;;;;;;;;;;;;;;;;;;5035223;28;6726;-69
2022/11/29 10:56:53;;;;;;;;;;;;;;;;;;5034963;28;7375;-69
2022/11/29 10:59:21;;;;;;;;;;;;;;;;;;5034255;28;7065;-69
2022/11/29 11:08:21;;;;;;;;;;;;;;;;;;5034363;28;6929;-69
2022/11/29 11:10:52;;;;;;;;;;;;;;;;;;5035103;28;7485;-69
2022/11/29 11:16:23;;;;;;;;;;;;;;;;;;5034115;28;6690;-69
2022/11/29 11:19:23;;;;;;;;;;;;;;;;;;5034506;28;7461;-69
2022/11/29 11:21:50;;;;;;;;;;;;;;;;;;5034581;28;7429;-69
2022/11/29 11:24:30;;;;;;;;;;;;;;;;;;5034527;28;7348;-69
2022/11/29 11:26:56;;;;;;;;;;;;;;;;;;5034453;28;6899;-69
2022/11/29 11:35:50;;;;;;;;;;;;;;;;;;5034181;28;7386;-69
2022/11/29 11:38:16;;;;;;;;;;;;;;;;;;5034300;28;7507;-69
2022/11/29 11:40:43;;;;;;;;;;;;;;;;;;5034337;28;7380;-69
2022/11/29 11:46:02;;;;;;;;;;;;;;;;;;5043053;28;6789;-69
2022/11/29 11:48:39;;;;;;;;;;;;;;;;;;5053748;28;7129;-70
2022/11/29 11:54:03;;;;;;;;;;;;;;;;;;5058331;28;6971;-69
2022/11/29 11:56:34;;;;;;;;;;;;;;;;;;5058037;28;7140;-69
2022/11/29 11:59:09;;;;;;;;;;;;;;;;;;5057800;28;7184;-64
2022/11/29 12:01:37;;;;;;;;;;;;;;;;;;5057825;28;7141;-64
2022/11/29 12:04:24;;;;;;;;;;;;;;;;;;5058154;28;7107;-64
2022/11/29 12:06:52;;;;;;;;;;;;;;;;;;5057553;28;7126;-64
2022/11/29 12:09:24;;;;;;;;;;;;;;;;;;5057632;28;6821;-64
2022/11/29 12:11:53;;;;;;;;;;;;;;;;;;5057678;28;7644;-64
2022/11/29 12:14:38;;;;;;;;;;;;;;;;;;5058424;28;7045;-64
2022/11/29 12:17:11;;;;;;;;;;;;;;;;;;5057652;28;6969;-64
2022/11/29 12:19:56;;;;;;;;;;;;;;;;;;5057544;28;7101;-64
2022/11/29 12:22:25;;;;;;;;;;;;;;;;;;5058090;28;6927;-64
2022/11/29 12:24:57;;;;;;;;;;;;;;;;;;5057396;28;7045;-64
2022/11/29 12:27:38;;;;;;;;;;;;;;;;;;5057044;28;7216;-64
2022/11/29 12:30:11;;;;;;;;;;;;;;;;;;5057747;28;7006;-64
2022/11/29 12:38:41;;;;;;;;;;;;;;;;;;5057456;28;6925;-64
2022/11/29 12:41:15;;;;;;;;;;;;;;;;;;5056998;28;6868;-64
2022/11/29 12:43:40;;;;;;;;;;;;;;;;;;5057184;28;7122;-64
2022/11/29 12:46:11;;;;;;;;;;;;;;;;;;5053267;28;8507;-64
2022/11/29 12:48:59;;;;;;;;;;;;;;;;;;5056633;28;6988;-64
2022/11/29 12:51:33;;;;;;;;;;;;;;;;;;5058052;28;7404;-64
2022/11/29 12:54:14;;;;;;;;;;;;;;;;;;5057033;28;7429;-64
2022/11/29 12:56:47;;;;;;;;;;;;;;;;;;5057356;28;7075;-64
2022/11/29 12:59:16;;;;;;;;;;;;;;;;;;5056756;28;7045;-64
2022/11/29 13:05:19;;;;;;;;;;;;;;;;;;5015194;28;6999;-64
2022/11/29 13:07:52;;;;;;;;;;;;;;;;;;5014837;28;7086;-63
2022/11/29 13:10:34;;;;;;;;;;;;;;;;;;5014805;28;7115;-63
2022/11/29 13:13:02;;;;;;;;;;;;;;;;;;5014831;28;6993;-64
2022/11/29 13:15:28;;;;;;;;;;;;;;;;;;5014703;28;7406;-63
2022/11/29 13:18:22;;;;;;;;;;;;;;;;;;5015163;28;7419;-64
2022/11/29 13:20:59;;;;;;;;;;;;;;;;;;5014824;28;6970;-65
2022/11/29 13:23:33;;;;;;;;;;;;;;;;;;5014553;28;7251;-64
2022/11/29 13:26:16;;;;;;;;;;;;;;;;;;5014745;28;7003;-64
2022/11/29 13:28:45;;;;;;;;;;;;;;;;;;5033854;28;7442;-64
2022/11/29 13:31:24;;;;;;;;;;;;;;;;;;5033978;28;7065;-63
2022/11/29 13:33:57;;;;;;;;;;;;;;;;;;5034123;28;7264;-64
2022/11/29 13:39:41;;;;;;;;;;;;;;;;;;5075383;28;6682;-64
2022/11/29 13:42:17;;;;;;;;;;;;;;;;;;5075618;28;7086;-64
2022/11/29 13:45:02;;;;;;;;;;;;;;;;;;5075974;28;6937;-64
2022/11/29 13:47:28;;;;;;;;;;;;;;;;;;5055619;28;7364;-64
2022/11/29 13:50:03;;;;;;;;;;;;;;;;;;5037595;28;8425;-64
2022/11/29 13:52:41;;;;;;;;;;;;;;;;;;5037665;28;8754;-64
2022/11/29 13:55:22;;;;;;;;;;;;;;;;;;5055771;28;7166;-64
2022/11/29 13:57:47;;;;;;;;;;;;;;;;;;5055330;28;7134;-64
2022/11/29 14:03:18;;;;;;;;;;;;;;;;;;5056415;28;6992;-64
2022/11/29 14:09:22;;;;;;;;;;;;;;;;;;5054916;28;6999;-64
2022/11/29 14:11:53;;;;;;;;;;;;;;;;;;5055177;28;7074;-64
2022/11/29 14:14:24;;;;;;;;;;;;;;;;;;5055303;28;7161;-64
2022/11/29 14:16:52;;;;;;;;;;;;;;;;;;5055580;28;7008;-64
2022/11/29 14:22:21;;;;;;;;;;;;;;;;;;5054950;28;7434;-64
2022/11/29 14:24:58;;;;;;;;;;;;;;;;;;5055144;28;7123;-64
2022/11/29 14:30:31;;;;;;;;;;;;;;;;;;5034889;28;6917;-68
2022/11/29 14:33:16;;;;;;;;;;;;;;;;;;5035054;28;7146;-68
2022/11/29 14:35:46;;;;;;;;;;;;;;;;;;5034473;28;7053;-68
2022/11/29 14:38:41;;;;;;;;;;;;;;;;;;5035010;28;6942;-68
2022/11/29 14:44:20;;;;;;;;;;;;;;;;;;5034968;28;6890;-68
2022/11/29 14:52:53;;;;;;;;;;;;;;;;;;5053083;28;6915;-68
2022/11/29 14:55:19;;;;;;;;;;;;;;;;;;5052996;28;7377;-69
2022/11/29 14:58:10;;;;;;;;;;;;;;;;;;5054816;28;7047;-69
2022/11/29 15:00:41;;;;;;;;;;;;;;;;;;5053914;28;7166;-69
2022/11/29 15:03:26;;;;;;;;;;;;;;;;;;5053757;28;7098;-69
2022/11/29 15:06:10;;;;;;;;;;;;;;;;;;5054475;28;7174;-69
2022/11/29 15:08:53;;;;;;;;;;;;;;;;;;5054554;28;7155;-69
2022/11/29 15:11:19;;;;;;;;;;;;;;;;;;5054139;28;7571;-69
2022/11/29 15:13:56;;;;;;;;;;;;;;;;;;5054388;28;7401;-69
2022/11/29 15:16:21;;;;;;;;;;;;;;;;;;5055097;28;7783;-70
2022/11/29 15:19:05;;;;;;;;;;;;;;;;;;5054591;28;7224;-70
2022/11/29 15:21:49;;;;;;;;;;;;;;;;;;5054377;28;7209;-70
2022/11/29 15:24:17;;;;;;;;;;;;;;;;;;5055392;28;7162;-70
2022/11/29 15:27:02;;;;;;;;;;;;;;;;;;5055554;28;7060;-69
2022/11/29 15:29:35;;;;;;;;;;;;;;;;;;5058484;28;7190;-69
2022/11/29 15:32:04;;;;;;;;;;;;;;;;;;5058804;28;6902;-69
2022/11/29 15:37:38;;;;;;;;;;;;;;;;;;5058116;28;6981;-69
2022/11/29 15:40:03;;;;;;;;;;;;;;;;;;5058229;28;7146;-69
2022/11/29 15:44:55;;;;;;;;;;;;;;;;;;5293140;22;7704;-78
2022/11/29 15:50:26;;;;;;;;;;;;;;;;;;5037828;28;7304;-71
2022/11/29 15:53:28;;;;;;;;;;;;;;;;;;5038119;28;6911;-78
2022/11/29 15:55:56;;;;;;;;;;;;;;;;;;5037909;28;7985;-80
2022/11/29 15:58:34;;;;;;;;;;;;;;;;;;5035136;28;7179;-79
2022/11/29 16:01:00;;;;;;;;;;;;;;;;;;5037106;28;6927;-78
2022/11/29 16:03:32;;;;;;;;;;;;;;;;;;5034312;28;7060;-79
2022/11/29 16:06:05;;;;;;;;;;;;;;;;;;5035989;28;7084;-79
2022/11/29 16:08:39;;;;;;;;;;;;;;;;;;5036660;28;7114;-79
2022/11/29 16:11:06;;;;;;;;;;;;;;;;;;5037558;28;7166;-79
2022/11/29 16:28:50;;;;;;;;;;;;;;;;;;5037372;28;7447;-71
2022/11/29 16:31:17;;;;;;;;;;;;;;;;;;5037142;28;6914;-71
2022/11/29 16:36:46;;;;;;;;;;;;;;;;;;5036860;28;7404;-80
2022/11/29 16:39:26;;;;;;;;;;;;;;;;;;5035827;28;7422;-79
2022/11/29 16:42:10;;;;;;;;;;;;;;;;;;5036621;28;7036;-79
2022/11/29 16:44:39;;;;;;;;;;;;;;;;;;5032840;28;6974;-71
2022/11/29 16:47:34;;;;;;;;;;;;;;;;;;5036252;28;7158;-71
2022/11/29 16:50:00;;;;;;;;;;;;;;;;;;5037423;28;7060;-79
2022/11/29 16:52:36;;;;;;;;;;;;;;;;;;5035965;28;7260;-71
2022/11/29 16:55:01;;;;;;;;;;;;;;;;;;5036872;28;6944;-79
2022/11/29 16:58:03;;;;;;;;;;;;;;;;;;5036847;28;7173;-79
2022/11/29 17:00:28;;;;;;;;;;;;;;;;;;5036734;28;7502;-79
2022/11/29 17:05:57;;;;;;;;;;;;;;;;;;5036473;28;6987;-71
2022/11/29 17:08:22;;;;;;;;;;;;;;;;;;5036697;28;7244;-79
2022/11/29 17:10:48;;;;;;;;;;;;;;;;;;5036501;28;7136;-79
2022/11/29 17:16:18;;;;;;;;;;;;;;;;;;5036093;28;7001;-79
2022/11/29 17:18:57;;;;;;;;;;;;;;;;;;5036171;28;7432;-71
2022/11/29 17:21:25;;;;;;;;;;;;;;;;;;5036378;28;7165;-79
2022/11/29 17:23:52;;;;;;;;;;;;;;;;;;5036322;28;7163;-71
2022/11/29 17:26:19;;;;;;;;;;;;;;;;;;5018419;28;7462;-71
2022/11/29 17:28:46;;;;;;;;;;;;;;;;;;5035956;28;7125;-79
2022/11/29 17:31:38;;;;;;;;;;;;;;;;;;5018264;28;7192;-71
2022/11/29 17:34:05;;;;;;;;;;;;;;;;;;5036214;28;6903;-71
2022/11/29 17:36:31;;;;;;;;;;;;;;;;;;5036214;28;7063;-71
2022/11/29 17:41:59;;;;;;;;;;;;;;;;;;5035878;28;6690;-71
2022/11/29 17:50:37;;;;;;;;;;;;;;;;;;5035131;28;6681;-71
2022/11/29 17:53:04;;;;;;;;;;;;;;;;;;5035844;28;7166;-71
2022/11/29 17:55:57;;;;;;;;;;;;;;;;;;5035512;28;6974;-71
2022/11/29 17:58:23;;;;;;;;;;;;;;;;;;5035661;28;7418;-71
2022/11/29 18:04:11;;;;;;;;;;;;;;;;;;5013855;28;6969;-71
2022/11/29 18:09:46;;;;;;;;;;;;;;;;;;5013551;28;7416;-71
2022/11/29 18:12:15;;;;;;;;;;;;;;;;;;5013628;28;7202;-71
2022/11/29 18:14:41;;;;;;;;;;;;;;;;;;5013692;28;7148;-71
2022/11/29 18:17:07;;;;;;;;;;;;;;;;;;5013509;28;6956;-71
2022/11/29 18:19:50;;;;;;;;;;;;;;;;;;5013457;28;8436;-71
2022/11/29 18:22:15;;;;;;;;;;;;;;;;;;5013759;28;7466;-71
2022/11/29 18:25:11;;;;;;;;;;;;;;;;;;5013411;28;7189;-71
2022/11/29 18:27:48;;;;;;;;;;;;;;;;;;5013448;28;6982;-71
2022/11/29 18:30:14;;;;;;;;;;;;;;;;;;5013206;28;7228;-71
2022/11/29 18:32:39;;;;;;;;;;;;;;;;;;5013241;28;7015;-71
2022/11/29 18:41:16;;;;;;;;;;;;;;;;;;5034680;28;6682;-71
2022/11/29 18:50:37;;;;;;;;;;;;;;;;;;5034542;28;6972;-71
2022/11/29 18:56:14;;;;;;;;;;;;;;;;;;5034982;28;6681;-71
2022/11/29 18:58:53;;;;;;;;;;;;;;;;;;5034516;28;7044;-71
2022/11/29 19:01:21;;;;;;;;;;;;;;;;;;5034093;28;7186;-71
2022/11/29 19:04:20;;;;;;;;;;;;;;;;;;5034585;28;7366;-69
2022/11/29 19:06:47;;;;;;;;;;;;;;;;;;5035301;28;7057;-69
2022/11/29 19:09:15;;;;;;;;;;;;;;;;;;5034296;28;7232;-69
2022/11/29 19:11:53;;;;;;;;;;;;;;;;;;5034677;28;6876;-69
2022/11/29 19:14:20;;;;;;;;;;;;;;;;;;5034568;28;7433;-69
2022/11/29 19:19:48;;;;;;;;;;;;;;;;;;5034349;28;6690;-69
2022/11/29 19:25:17;;;;;;;;;;;;;;;;;;5034362;28;6679;-69
2022/11/29 19:30:35;;;;;;;;;;;;;;;;;;5034429;28;8010;-69
2022/11/29 19:33:01;;;;;;;;;;;;;;;;;;5035275;28;7314;-69
2022/11/29 19:38:43;;;;;;;;;;;;;;;;;;5034266;28;6691;-69
2022/11/29 19:41:14;;;;;;;;;;;;;;;;;;5016996;28;7075;-69
2022/11/29 19:43:40;;;;;;;;;;;;;;;;;;5031575;28;7178;-69
2022/11/29 19:46:08;;;;;;;;;;;;;;;;;;5033975;28;6952;-69
2022/11/29 19:48:34;;;;;;;;;;;;;;;;;;5034251;28;7505;-69
2022/11/29 19:51:00;;;;;;;;;;;;;;;;;;5034189;28;7270;-69
2022/11/29 19:56:22;;;;;;;;;;;;;;;;;;5034297;28;7152;-69
2022/11/29 19:58:49;;;;;;;;;;;;;;;;;;5034074;28;7465;-69
2022/11/29 20:01:16;;;;;;;;;;;;;;;;;;5033856;28;6962;-69
2022/11/29 20:03:46;;;;;;;;;;;;;;;;;;5034129;28;7434;-69
2022/11/29 20:06:12;;;;;;;;;;;;;;;;;;5033787;28;8335;-76
2022/11/29 20:08:43;;;;;;;;;;;;;;;;;;5034270;28;7152;-70
2022/11/29 20:11:13;;;;;;;;;;;;;;;;;;5033805;28;7493;-68
2022/11/29 20:13:40;;;;;;;;;;;;;;;;;;5037520;28;7093;-69
2022/11/29 20:16:08;;;;;;;;;;;;;;;;;;5020481;28;6974;-68
2022/11/29 20:18:43;;;;;;;;;;;;;;;;;;5037835;28;7065;-69
2022/11/29 20:21:10;;;;;;;;;;;;;;;;;;5037472;28;7458;-68
2022/11/29 20:23:38;;;;;;;;;;;;;;;;;;5038363;28;7081;-68
2022/11/29 20:26:07;;;;;;;;;;;;;;;;;;5037431;28;7176;-69
2022/11/29 20:28:54;;;;;;;;;;;;;;;;;;5037278;28;7047;-68
2022/11/29 20:34:24;;;;;;;;;;;;;;;;;;5018740;28;6973;-69
2022/11/29 20:40:19;;;;;;;;;;;;;;;;;;5037071;28;6996;-77
2022/11/29 20:42:52;;;;;;;;;;;;;;;;;;5019391;28;7174;-77
2022/11/29 20:45:18;;;;;;;;;;;;;;;;;;5026851;28;7638;-77
2022/11/29 20:48:01;;;;;;;;;;;;;;;;;;5036691;28;7265;-77
2022/11/29 20:50:28;;;;;;;;;;;;;;;;;;5037661;28;7063;-77
2022/11/29 20:53:09;;;;;;;;;;;;;;;;;;5037017;28;6941;-77
2022/11/29 20:55:38;;;;;;;;;;;;;;;;;;5037122;28;7075;-77
2022/11/29 20:58:11;;;;;;;;;;;;;;;;;;5036976;28;6851;-77
2022/11/29 21:00:37;;;;;;;;;;;;;;;;;;5036626;28;7211;-77
2022/11/29 21:03:18;;;;;;;;;;;;;;;;;;5036848;28;7096;-77
2022/11/29 21:06:16;;;;;;;;;;;;;;;;;;5036746;28;7205;-77
2022/11/29 21:08:41;;;;;;;;;;;;;;;;;;5036718;28;7039;-77
2022/11/29 21:11:11;;;;;;;;;;;;;;;;;;5036438;28;7174;-77
2022/11/29 21:14:13;;;;;;;;;;;;;;;;;;5036555;28;7179;-77
2022/11/29 21:17:05;;;;;;;;;;;;;;;;;;5036897;28;7112;-77
2022/11/29 21:19:31;;;;;;;;;;;;;;;;;;5036417;28;7193;-68
2022/11/29 21:27:47;;;;;;;;;;;;;;;;;;5037264;28;6951;-68
2022/11/29 21:30:16;;;;;;;;;;;;;;;;;;5036251;28;7352;-68
2022/11/29 21:32:43;;;;;;;;;;;;;;;;;;5035898;28;7638;-68
2022/11/29 21:35:08;;;;;;;;;;;;;;;;;;5037052;28;7215;-69
2022/11/29 21:37:54;;;;;;;;;;;;;;;;;;5018345;28;7044;-69
2022/11/29 21:40:20;;;;;;;;;;;;;;;;;;5017149;28;7201;-69
2022/11/29 21:42:47;;;;;;;;;;;;;;;;;;5016198;28;7146;-69
2022/11/29 21:45:13;;;;;;;;;;;;;;;;;;5015942;28;7242;-69
2022/11/29 21:47:48;;;;;;;;;;;;;;;;;;4999621;28;8696;-69
2022/11/29 21:50:14;;;;;;;;;;;;;;;;;;5016001;28;6963;-69
2022/11/29 21:52:40;;;;;;;;;;;;;;;;;;4998568;28;8615;-69
2022/11/29 21:55:28;;;;;;;;;;;;;;;;;;5015995;28;7390;-69
2022/11/29 21:57:54;;;;;;;;;;;;;;;;;;5016038;28;6958;-69
2022/11/29 22:00:20;;;;;;;;;;;;;;;;;;5015851;28;7224;-69
2022/11/29 22:02:45;;;;;;;;;;;;;;;;;;5015956;28;7124;-69
2022/11/29 22:05:11;;;;;;;;;;;;;;;;;;5017042;28;7208;-69